createdAt,value
2019-03-24T00:02:45.937Z,7.0
2019-03-24T00:07:45.501Z,6.9
2019-03-24T00:12:27.521Z,6.8
2019-03-24T00:17:27.808Z,6.8
2019-03-24T00:22:29.087Z,6.8
2019-03-24T00:27:28.407Z,6.7
2019-03-24T00:32:27.732Z,6.6
2019-03-24T00:37:27.618Z,6.5
2019-03-24T00:42:27.370Z,6.5
2019-03-24T00:47:27.597Z,6.4
2019-03-24T00:52:27.984Z,6.4
2019-03-24T00:57:27.268Z,6.3
2019-03-24T01:02:28.489Z,6.1
2019-03-24T01:07:27.943Z,6.1
2019-03-24T01:12:27.917Z,6.1
2019-03-24T01:17:28.314Z,5.9
2019-03-24T01:22:27.613Z,5.9
2019-03-24T01:27:28.141Z,5.8
2019-03-24T01:32:27.244Z,5.9
2019-03-24T01:37:28.909Z,5.9
2019-03-24T01:42:27.226Z,5.7
2019-03-24T01:47:28.631Z,5.6
2019-03-24T01:52:28.037Z,5.6
2019-03-24T01:57:29.591Z,5.6
2019-03-24T02:02:27.835Z,5.5
2019-03-24T02:07:27.909Z,5.4
2019-03-24T02:12:27.488Z,5.4
2019-03-24T02:17:28.146Z,5.4
2019-03-24T02:22:27.910Z,5.3
2019-03-24T02:27:28.179Z,5.2
2019-03-24T02:32:27.990Z,5.2
2019-03-24T02:37:27.220Z,5.2
2019-03-24T02:42:28.448Z,5.1
2019-03-24T02:47:28.196Z,5.0
2019-03-24T02:52:28.007Z,4.9
2019-03-24T02:57:28.359Z,4.9
2019-03-24T03:02:27.480Z,4.9
2019-03-24T03:07:28.268Z,4.9
2019-03-24T03:12:27.708Z,4.8
2019-03-24T03:17:29.372Z,4.8
2019-03-24T03:22:29.602Z,4.7
2019-03-24T03:27:28.824Z,4.7
2019-03-24T03:32:27.359Z,4.7
2019-03-24T03:37:28.482Z,4.6
2019-03-24T03:42:28.292Z,4.6
2019-03-24T03:47:28.556Z,4.6
2019-03-24T03:52:27.723Z,4.5
2019-03-24T03:57:28.051Z,4.4
2019-03-24T04:02:28.541Z,4.3
2019-03-24T04:07:27.963Z,4.2
2019-03-24T04:12:28.957Z,4.2
2019-03-24T04:17:28.011Z,4.1
2019-03-24T04:22:27.634Z,4.1
2019-03-24T04:27:27.418Z,3.9
2019-03-24T04:32:27.934Z,3.9
2019-03-24T04:37:28.154Z,3.9
2019-03-24T04:42:28.300Z,3.9
2019-03-24T04:47:28.651Z,3.8
2019-03-24T04:52:28.301Z,3.7
2019-03-24T04:57:28.605Z,3.7
2019-03-24T05:02:29.283Z,3.7
2019-03-24T05:07:28.487Z,3.7
2019-03-24T05:12:28.587Z,3.7
2019-03-24T05:17:28.217Z,3.7
2019-03-24T05:22:28.097Z,3.7
2019-03-24T05:27:28.903Z,3.7
2019-03-24T05:32:28.452Z,3.7
2019-03-24T05:37:29.381Z,3.7
2019-03-24T05:42:28.179Z,3.7
2019-03-24T05:47:36.970Z,3.7
2019-03-24T05:52:28.532Z,3.8
2019-03-24T05:57:29.782Z,3.9
2019-03-24T06:02:28.565Z,4.0
2019-03-24T06:07:28.634Z,4.1
2019-03-24T06:12:28.439Z,4.2
2019-03-24T06:17:28.108Z,4.3
2019-03-24T06:22:28.317Z,4.5
2019-03-24T06:27:28.982Z,4.7
2019-03-24T06:32:29.274Z,4.9
2019-03-24T06:37:28.268Z,5.0
2019-03-24T06:42:27.573Z,5.1
2019-03-24T06:47:28.479Z,5.3
2019-03-24T06:52:28.549Z,5.5
2019-03-24T06:57:27.913Z,5.7
2019-03-24T07:02:27.858Z,6.0
2019-03-24T07:07:29.244Z,6.3
2019-03-24T07:12:28.627Z,6.5
2019-03-24T07:17:28.053Z,7.1
2019-03-24T07:22:27.864Z,7.1
2019-03-24T07:27:28.494Z,7.4
2019-03-24T07:32:29.006Z,7.7
2019-03-24T07:37:28.632Z,8.0
2019-03-24T07:42:28.625Z,8.4
2019-03-24T07:47:27.848Z,9.1
2019-03-24T07:52:28.336Z,9.0
2019-03-24T07:57:28.473Z,9.5
2019-03-24T08:02:28.036Z,9.8
2019-03-24T08:07:29.445Z,10.2
2019-03-24T08:12:28.776Z,10.5
2019-03-24T08:17:28.608Z,10.8
2019-03-24T08:22:27.756Z,11.1
2019-03-24T08:27:28.631Z,11.9
2019-03-24T08:32:28.983Z,12.4
2019-03-24T08:37:28.995Z,12.3
2019-03-24T08:42:28.160Z,12.8
2019-03-24T08:47:28.096Z,13.2
2019-03-24T08:52:27.834Z,13.5
2019-03-24T08:57:27.877Z,14.0
2019-03-24T09:02:29.315Z,14.7
2019-03-24T09:07:28.311Z,14.6
2019-03-24T09:12:30.189Z,15.6
2019-03-24T09:17:28.281Z,15.9
2019-03-24T09:22:28.494Z,15.9
2019-03-24T09:27:29.403Z,16.3
2019-03-24T09:32:28.143Z,17.1
2019-03-24T09:37:29.027Z,17.5
2019-03-24T09:42:28.079Z,17.5
2019-03-24T09:47:28.420Z,17.9
2019-03-24T09:52:27.766Z,18.3
2019-03-24T09:57:30.019Z,18.6
2019-03-24T10:02:28.243Z,18.8
2019-03-24T10:07:28.417Z,18.8
2019-03-24T10:12:28.174Z,19.3
2019-03-24T10:17:28.206Z,19.8
2019-03-24T10:22:27.992Z,20.2
2019-03-24T10:27:28.391Z,20.5
2019-03-24T10:32:28.562Z,20.5
2019-03-24T10:37:28.410Z,20.6
2019-03-24T10:42:28.217Z,20.6
2019-03-24T10:47:28.645Z,21.0
2019-03-24T10:52:28.430Z,21.0
2019-03-24T10:57:28.510Z,21.1
2019-03-24T11:02:27.972Z,21.7
2019-03-24T11:07:28.690Z,21.7
2019-03-24T11:12:28.492Z,21.9
2019-03-24T11:17:29.244Z,22.2
2019-03-24T11:22:28.100Z,22.5
2019-03-24T11:27:29.981Z,22.4
2019-03-24T11:32:29.299Z,22.3
2019-03-24T11:37:28.932Z,22.8
2019-03-24T11:42:29.081Z,23.2
2019-03-24T11:47:28.046Z,23.3
2019-03-24T11:52:28.605Z,23.2
2019-03-24T11:57:28.309Z,23.1
2019-03-24T12:02:28.770Z,22.4
2019-03-24T12:07:28.983Z,22.2
2019-03-24T12:12:28.431Z,21.9
2019-03-24T12:17:28.758Z,21.2
2019-03-24T12:22:28.705Z,20.9
2019-03-24T12:27:29.126Z,21.1
2019-03-24T12:32:28.461Z,21.0
2019-03-24T12:37:28.728Z,21.3
2019-03-24T12:42:29.123Z,21.9
2019-03-24T12:47:28.263Z,22.4
2019-03-24T12:52:28.779Z,22.9
2019-03-24T12:57:28.335Z,24.4
2019-03-24T13:02:27.914Z,25.0
2019-03-24T13:07:29.453Z,25.0
2019-03-24T13:12:28.188Z,26.5
2019-03-24T13:17:29.995Z,26.4
2019-03-24T13:22:28.605Z,26.6
2019-03-24T13:27:28.621Z,26.4
2019-03-24T13:32:29.580Z,25.7
2019-03-24T13:37:27.853Z,25.1
2019-03-24T13:42:28.974Z,23.7
2019-03-24T13:47:28.873Z,23.6
2019-03-24T13:52:28.307Z,23.4
2019-03-24T13:57:29.022Z,23.2
2019-03-24T14:02:27.721Z,22.9
2019-03-24T14:07:28.162Z,23.0
2019-03-24T14:12:29.698Z,22.9
2019-03-24T14:17:29.344Z,23.1
2019-03-24T14:22:27.793Z,23.3
2019-03-24T14:27:28.871Z,25.4
2019-03-24T14:32:27.707Z,26.5
2019-03-24T14:37:27.703Z,26.4
2019-03-24T14:42:28.470Z,26.0
2019-03-24T14:47:28.735Z,26.7
2019-03-24T14:52:27.676Z,27.5
2019-03-24T14:57:28.793Z,29.3
2019-03-24T15:02:28.390Z,30.3
2019-03-24T15:07:28.414Z,30.3
2019-03-24T15:12:28.015Z,30.5
2019-03-24T15:17:29.410Z,30.6
2019-03-24T15:22:27.872Z,31.0
2019-03-24T15:27:28.318Z,31.5
2019-03-24T15:32:28.176Z,31.8
2019-03-24T15:37:28.635Z,31.8
2019-03-24T15:42:28.213Z,32.0
2019-03-24T15:47:28.350Z,31.4
2019-03-24T15:52:28.307Z,31.5
2019-03-24T15:57:28.019Z,31.5
2019-03-24T16:02:28.750Z,31.5
2019-03-24T16:07:28.389Z,31.2
2019-03-24T16:12:27.705Z,31.0
2019-03-24T16:17:28.272Z,30.7
2019-03-24T16:22:27.830Z,29.1
2019-03-24T16:27:28.708Z,29.0
2019-03-24T16:32:28.787Z,27.4
2019-03-24T16:37:28.845Z,24.9
2019-03-24T16:42:27.653Z,22.8
2019-03-24T16:47:28.330Z,20.4
2019-03-24T16:52:29.282Z,19.7
2019-03-24T16:57:28.520Z,19.1
2019-03-24T17:02:29.710Z,17.9
2019-03-24T17:07:28.346Z,16.9
2019-03-24T17:12:28.240Z,16.1
2019-03-24T17:17:28.434Z,15.1
2019-03-24T17:22:30.173Z,14.6
2019-03-24T17:27:28.102Z,14.2
2019-03-24T17:32:28.252Z,14.1
2019-03-24T17:37:29.929Z,13.9
2019-03-24T17:42:27.788Z,13.6
2019-03-24T17:47:30.031Z,13.1
2019-03-24T17:52:28.757Z,13.1
2019-03-24T17:57:27.876Z,12.9
2019-03-24T18:02:28.537Z,12.7
2019-03-24T18:07:28.307Z,12.5
2019-03-24T18:12:28.974Z,12.4
2019-03-24T18:17:27.755Z,12.4
2019-03-24T18:22:28.336Z,12.3
2019-03-24T18:27:28.765Z,12.2
2019-03-24T18:32:27.790Z,11.9
2019-03-24T18:37:29.688Z,11.8
2019-03-24T18:42:28.136Z,11.7
2019-03-24T18:47:28.026Z,11.7
2019-03-24T18:52:28.427Z,11.7
2019-03-24T18:57:27.875Z,11.6
2019-03-24T19:02:27.836Z,11.5
2019-03-24T19:07:27.971Z,11.5
2019-03-24T19:12:27.974Z,11.5
2019-03-24T19:17:27.915Z,11.5
2019-03-24T19:22:33.427Z,11.4
2019-03-24T19:27:27.917Z,11.2
2019-03-24T19:32:27.738Z,11.1
2019-03-24T19:37:29.086Z,10.9
2019-03-24T19:42:27.491Z,10.9
2019-03-24T19:47:28.076Z,10.9
2019-03-24T19:52:28.021Z,11.0
2019-03-24T19:57:27.662Z,11.1
2019-03-24T20:02:27.731Z,11.3
2019-03-24T20:07:27.858Z,11.2
2019-03-24T20:12:29.506Z,10.9
2019-03-24T20:17:28.425Z,10.7
2019-03-24T20:22:28.586Z,10.7
2019-03-24T20:27:27.834Z,10.6
2019-03-24T20:32:27.903Z,10.5
2019-03-24T20:37:28.361Z,10.4
2019-03-24T20:42:28.337Z,10.2
2019-03-24T20:47:28.411Z,10.0
2019-03-24T20:52:28.103Z,9.8
2019-03-24T20:57:27.564Z,9.7
2019-03-24T21:02:27.890Z,9.6
2019-03-24T21:07:28.134Z,9.6
2019-03-24T21:12:27.571Z,9.5
2019-03-24T21:17:27.861Z,9.6
2019-03-24T21:22:28.210Z,9.6
2019-03-24T21:27:28.907Z,9.6
2019-03-24T21:32:28.363Z,9.7
2019-03-24T21:37:27.799Z,9.7
2019-03-24T21:42:27.559Z,9.9
2019-03-24T21:47:29.230Z,9.9
2019-03-24T21:52:29.273Z,9.9
2019-03-24T21:57:27.633Z,10.0
2019-03-24T22:02:28.228Z,10.1
2019-03-24T22:07:27.654Z,10.0
2019-03-24T22:12:29.160Z,10.0
2019-03-24T22:17:28.253Z,10.1
2019-03-24T22:22:28.207Z,10.1
2019-03-24T22:27:28.123Z,10.2
2019-03-24T22:32:28.237Z,10.1
2019-03-24T22:37:27.829Z,10.1
2019-03-24T22:42:29.404Z,10.0
2019-03-24T22:47:28.277Z,10.0
2019-03-24T22:52:28.612Z,10.1
2019-03-24T22:57:27.823Z,10.1
2019-03-24T23:02:27.636Z,10.1
2019-03-24T23:07:28.088Z,10.1
2019-03-24T23:12:27.279Z,10.1
2019-03-24T23:22:48.055Z,10.0
2019-03-24T23:27:46.381Z,10.0
2019-03-24T23:32:46.458Z,10.0
2019-03-24T23:37:46.161Z,10.0
2019-03-24T23:42:46.039Z,10.1
2019-03-24T23:47:46.452Z,10.0
2019-03-24T23:52:46.465Z,9.9
2019-03-24T23:57:45.981Z,9.9
